This is the latest recevied weather packets stored in our database for station/object K4AXV-13. If no packets are shown the sender has not sent any weather packets the latest 10 day(s).
| Time | Temp. | Humidity | Pressure | Rain* | Wind** | Luminosity | Snow |
|---|---|---|---|---|---|---|---|
| 1777491820 | 27.78° C | - | - | 0 mm | 1.34 m/s, 333° | - | - |
| 1777491521 | 27.78° C | - | - | 0 mm | 1.34 m/s, 330° | - | - |
| 1777491220 | 27.22° C | - | - | 0 mm | 2.24 m/s, 315° | - | - |
| 1777490619 | 28.33° C | - | - | 0 mm | 1.79 m/s, 330° | - | - |
| 1777490320 | 28.89° C | - | - | 0 mm | 1.79 m/s, 311° | - | - |
| 1777490018 | 28.33° C | - | - | 0 mm | 2.68 m/s, 291° | - | - |
| 1777489720 | 28.33° C | - | - | 0 mm | 0.89 m/s, 333° | - | - |
| 1777489418 | 28.33° C | - | - | 0 mm | 2.24 m/s, 305° | - | - |
| 1777489119 | 28.33° C | - | - | 0 mm | 1.79 m/s, 239° | - | - |
| 1777488817 | 28.33° C | - | - | 0 mm | 0.89 m/s, 346° | - | - |
| 1777488518 | 27.22° C | - | - | 0 mm | 1.79 m/s, 259° | - | - |
| 1777488217 | 27.78° C | - | - | 0 mm | 1.79 m/s, 307° | - | - |
| 1777487918 | 27.78° C | - | - | 0 mm | 0.89 m/s, 325° | - | - |
| 1777487616 | 27.78° C | - | - | 0 mm | 1.34 m/s, 311° | - | - |
| 1777487317 | 27.78° C | - | - | 0 mm | 1.34 m/s, 293° | - | - |
| 1777487015 | 27.22° C | - | - | 0 mm | 2.24 m/s, 260° | - | - |
| 1777486716 | 28.33° C | - | - | 0 mm | 1.34 m/s, 163° | - | - |
| 1777486415 | 27.22° C | - | - | 0 mm | 1.34 m/s, 287° | - | - |
| 1777484012 | 27.22° C | - | - | 0 mm | 0.89 m/s, 297° | - | - |
| 1777483713 | 26.67° C | - | - | 0 mm | 1.79 m/s, 318° | - | - |
| 1777483113 | 26.67° C | - | - | 0 mm | 2.24 m/s, 325° | - | - |
| 1777482811 | 26.67° C | - | - | 0 mm | 1.34 m/s, 51° | - | - |
| 1777482211 | 26.11° C | - | - | 0 mm | 1.79 m/s, 329° | - | - |
| 1777481912 | 25.56° C | - | - | 0 mm | 2.24 m/s, 340° | - | - |
| 1777481610 | 26.11° C | - | - | 0 mm | 1.79 m/s, 311° | - | - |
* Rain latest hour (hover to see other rain measurements)
** Current wind speed in m/s (hover to see current wind gust speed)